createdAt,value
2023-05-26T00:01:48.371Z,5.70
2023-05-26T00:04:18.529Z,5.77
2023-05-26T00:06:47.363Z,5.53
2023-05-26T00:09:15.173Z,5.97
2023-05-26T00:11:42.268Z,5.60
2023-05-26T00:14:11.293Z,5.13
2023-05-26T00:16:38.274Z,6.03
2023-05-26T00:19:08.686Z,6.10
2023-05-26T00:21:39.324Z,5.50
2023-05-26T00:24:06.855Z,5.40
2023-05-26T00:26:33.887Z,6.23
2023-05-26T00:29:01.195Z,5.30
2023-05-26T00:31:28.276Z,5.03
2023-05-26T00:33:55.172Z,5.30
2023-05-26T00:36:22.100Z,5.63
2023-05-26T00:38:48.933Z,5.90
2023-05-26T00:41:16.032Z,7.60
2023-05-26T00:43:42.988Z,5.50
2023-05-26T00:46:11.122Z,6.03
2023-05-26T00:48:38.045Z,6.10
2023-05-26T00:51:05.237Z,6.87
2023-05-26T00:53:32.280Z,6.57
2023-05-26T00:55:59.301Z,6.70
2023-05-26T00:58:27.472Z,7.17
2023-05-26T01:00:54.382Z,6.30
2023-05-26T01:03:21.395Z,5.23
2023-05-26T01:05:48.573Z,6.33
2023-05-26T01:08:15.541Z,6.07
2023-05-26T01:10:42.444Z,6.53
2023-05-26T01:13:35.271Z,6.40
2023-05-26T01:16:08.618Z,7.13
2023-05-26T01:18:49.021Z,6.23
2023-05-26T01:21:16.257Z,6.33
2023-05-26T01:24:13.397Z,7.30
2023-05-26T01:27:09.966Z,6.40
2023-05-26T01:29:38.190Z,7.97
2023-05-26T01:32:10.436Z,6.53
2023-05-26T01:34:37.426Z,7.70
2023-05-26T01:37:04.553Z,8.20
2023-05-26T01:39:31.481Z,6.23
2023-05-26T01:42:29.879Z,6.47
2023-05-26T01:45:23.260Z,7.40
2023-05-26T01:47:53.347Z,6.17
2023-05-26T01:50:26.343Z,6.20
2023-05-26T01:52:57.252Z,6.93
2023-05-26T01:55:27.430Z,6.93
2023-05-26T01:57:57.203Z,7.10
2023-05-26T02:00:27.946Z,8.33
2023-05-26T02:02:55.032Z,8.03
2023-05-26T02:05:21.990Z,8.10
2023-05-26T02:07:49.013Z,8.50
2023-05-26T02:10:15.988Z,7.87
2023-05-26T02:12:42.822Z,8.00
2023-05-26T02:15:10.508Z,8.60
2023-05-26T02:17:37.407Z,7.97
2023-05-26T02:20:05.029Z,7.13
2023-05-26T02:22:31.931Z,8.60
2023-05-26T02:24:58.790Z,8.20
2023-05-26T02:27:26.200Z,8.10
2023-05-26T02:29:53.084Z,8.60
2023-05-26T02:32:20.115Z,8.43
2023-05-26T02:34:47.099Z,9.70
2023-05-26T02:37:13.922Z,9.93
2023-05-26T02:39:40.863Z,7.53
2023-05-26T02:42:08.056Z,9.13
2023-05-26T02:44:34.985Z,8.43
2023-05-26T02:47:01.821Z,9.23
2023-05-26T02:49:28.922Z,8.40
2023-05-26T02:51:55.850Z,8.83
2023-05-26T02:54:22.782Z,10.10
2023-05-26T02:56:49.684Z,9.70
2023-05-26T02:59:16.639Z,9.40
2023-05-26T03:01:43.714Z,10.00
2023-05-26T03:04:10.733Z,12.03
2023-05-26T03:06:37.778Z,8.10
2023-05-26T03:09:04.800Z,9.20
2023-05-26T03:11:31.656Z,9.00
2023-05-26T03:13:58.525Z,9.83
2023-05-26T03:16:25.516Z,9.30
2023-05-26T03:18:52.700Z,9.97
2023-05-26T03:21:48.632Z,8.40
2023-05-26T03:24:07.348Z,8.83
2023-05-26T03:26:34.286Z,8.43
2023-05-26T03:29:01.981Z,9.10
2023-05-26T03:31:29.057Z,9.43
2023-05-26T03:33:56.139Z,9.10
2023-05-26T03:36:23.095Z,9.60
2023-05-26T03:38:49.974Z,8.10
2023-05-26T03:41:16.968Z,10.17
2023-05-26T03:43:43.895Z,9.83
2023-05-26T03:46:10.884Z,9.60
2023-05-26T03:48:37.722Z,9.40
2023-05-26T03:51:05.030Z,9.37
2023-05-26T03:53:31.873Z,8.10
2023-05-26T03:55:58.740Z,10.00
2023-05-26T03:58:25.645Z,10.20
2023-05-26T04:00:52.648Z,8.10
2023-05-26T04:03:19.587Z,9.40
2023-05-26T04:05:46.864Z,10.67
2023-05-26T04:08:13.884Z,9.20
2023-05-26T04:10:40.961Z,9.10
2023-05-26T04:13:07.840Z,8.50
2023-05-26T04:15:34.743Z,10.50
2023-05-26T04:18:01.659Z,7.67
2023-05-26T04:20:28.580Z,10.70
2023-05-26T04:22:55.953Z,9.90
2023-05-26T04:25:22.974Z,8.27
2023-05-26T04:27:49.919Z,8.13
2023-05-26T04:30:18.126Z,6.87
2023-05-26T04:32:45.335Z,7.70
2023-05-26T04:35:12.316Z,6.40
2023-05-26T04:37:39.796Z,7.27
2023-05-26T04:40:08.636Z,6.70
2023-05-26T04:42:35.945Z,7.43
2023-05-26T04:45:04.491Z,6.70
2023-05-26T04:47:36.039Z,6.60
2023-05-26T04:50:04.783Z,7.13
2023-05-26T04:52:31.645Z,7.07
2023-05-26T04:54:58.546Z,7.13
2023-05-26T04:57:25.881Z,6.63
2023-05-26T04:59:52.803Z,6.23
2023-05-26T05:02:19.895Z,6.50
2023-05-26T05:04:47.567Z,6.93
2023-05-26T05:07:14.503Z,5.97
2023-05-26T05:09:41.513Z,5.93
2023-05-26T05:12:08.612Z,6.20
2023-05-26T05:14:35.511Z,5.90
2023-05-26T05:17:02.374Z,6.57
2023-05-26T05:19:29.848Z,6.87
2023-05-26T05:21:56.736Z,6.20
2023-05-26T05:24:23.761Z,5.67
2023-05-26T05:26:50.742Z,6.50
2023-05-26T05:29:17.652Z,6.23
2023-05-26T05:31:44.521Z,5.87
2023-05-26T05:34:11.504Z,5.80
2023-05-26T05:36:38.417Z,5.03
2023-05-26T05:39:05.410Z,6.27
2023-05-26T05:41:32.370Z,5.73
2023-05-26T05:43:59.261Z,5.77
2023-05-26T05:46:26.318Z,5.70
2023-05-26T05:48:53.410Z,4.90
2023-05-26T05:51:20.269Z,4.83
2023-05-26T05:53:47.201Z,6.03
2023-05-26T05:56:14.181Z,6.57
2023-05-26T05:58:41.031Z,5.53
2023-05-26T06:01:08.320Z,5.53
2023-05-26T06:03:35.374Z,5.87
2023-05-26T06:06:02.446Z,5.50
2023-05-26T06:08:29.353Z,5.10
2023-05-26T06:10:56.188Z,4.57
2023-05-26T06:13:23.123Z,5.10
2023-05-26T06:15:50.029Z,5.47
2023-05-26T06:18:16.980Z,4.83
2023-05-26T06:20:46.469Z,5.60
2023-05-26T06:23:13.773Z,5.27
2023-05-26T06:25:40.682Z,4.93
2023-05-26T06:28:07.565Z,4.90
2023-05-26T06:30:34.438Z,5.37
2023-05-26T06:33:01.349Z,6.30
2023-05-26T06:35:28.440Z,5.77
2023-05-26T06:37:55.430Z,4.90
2023-05-26T06:40:22.355Z,5.37
2023-05-26T06:42:49.219Z,5.50
2023-05-26T06:45:16.203Z,5.20
2023-05-26T06:47:43.149Z,5.00
2023-05-26T06:50:10.892Z,7.80
2023-05-26T06:52:37.757Z,5.00
2023-05-26T06:55:04.984Z,6.10
2023-05-26T06:57:31.929Z,5.00
2023-05-26T06:59:58.844Z,4.93
2023-05-26T07:02:26.081Z,5.80
2023-05-26T07:04:52.945Z,5.37
2023-05-26T07:07:19.795Z,4.83
2023-05-26T07:09:46.651Z,4.97
2023-05-26T07:12:13.585Z,4.83
2023-05-26T07:14:40.451Z,5.37
2023-05-26T07:17:07.328Z,5.40
2023-05-26T07:19:34.217Z,5.20
2023-05-26T07:22:01.191Z,5.30
2023-05-26T07:24:28.086Z,4.73
2023-05-26T07:26:54.986Z,5.53
2023-05-26T07:29:21.869Z,5.07
2023-05-26T07:31:48.755Z,5.13
2023-05-26T07:34:15.823Z,5.33
2023-05-26T07:36:42.740Z,5.30
2023-05-26T07:39:09.670Z,4.43
2023-05-26T07:41:37.176Z,5.07
2023-05-26T07:44:04.093Z,4.73
2023-05-26T07:46:31.187Z,5.00
2023-05-26T07:48:58.163Z,4.33
2023-05-26T07:51:25.037Z,5.00
2023-05-26T07:53:51.929Z,5.57
2023-05-26T07:56:18.835Z,4.33
2023-05-26T07:58:45.785Z,6.67
2023-05-26T08:01:12.766Z,5.20
2023-05-26T08:03:39.655Z,4.57
2023-05-26T08:06:24.480Z,4.97
2023-05-26T08:08:53.269Z,4.50
2023-05-26T08:11:20.168Z,5.53
2023-05-26T08:13:47.049Z,4.77
2023-05-26T08:16:13.944Z,6.00
2023-05-26T08:18:40.832Z,5.20
2023-05-26T08:21:07.668Z,4.50
2023-05-26T08:23:34.569Z,4.67
2023-05-26T08:26:03.241Z,4.50
2023-05-26T08:28:30.096Z,3.90
2023-05-26T08:30:56.957Z,5.60
2023-05-26T08:33:23.884Z,4.47
2023-05-26T08:35:51.785Z,5.30
2023-05-26T08:38:20.047Z,5.40
2023-05-26T08:40:48.863Z,4.67
2023-05-26T08:43:17.296Z,5.10
2023-05-26T08:45:45.224Z,4.80
2023-05-26T08:48:13.006Z,6.00
2023-05-26T08:50:40.282Z,5.73
2023-05-26T08:53:07.331Z,5.10
2023-05-26T08:55:35.246Z,5.70
2023-05-26T08:58:02.704Z,5.33
2023-05-26T09:00:35.682Z,5.40
2023-05-26T09:03:04.268Z,4.60
2023-05-26T09:05:31.846Z,4.57
2023-05-26T09:07:58.825Z,5.00
2023-05-26T09:10:33.694Z,4.50
2023-05-26T09:13:11.591Z,4.63
2023-05-26T09:15:39.663Z,4.13
2023-05-26T09:18:11.706Z,4.60
2023-05-26T09:20:48.077Z,4.70
2023-05-26T09:23:16.699Z,6.23
2023-05-26T09:25:46.637Z,5.00
2023-05-26T09:28:15.532Z,4.83
2023-05-26T09:30:47.824Z,4.73
2023-05-26T09:33:17.848Z,6.40
2023-05-26T09:35:49.254Z,5.00
2023-05-26T09:38:18.014Z,6.20
2023-05-26T09:40:46.754Z,5.40
2023-05-26T09:43:14.306Z,5.17
2023-05-26T09:45:41.516Z,4.17
2023-05-26T09:48:10.377Z,5.43
2023-05-26T09:50:41.298Z,5.00
2023-05-26T09:53:10.572Z,5.10
2023-05-26T09:55:43.972Z,5.23
2023-05-26T09:58:12.718Z,4.70
2023-05-26T10:00:43.974Z,4.63
2023-05-26T10:03:12.178Z,5.40
2023-05-26T10:05:57.972Z,4.90
2023-05-26T10:08:27.532Z,5.87
2023-05-26T10:10:54.462Z,5.40
2023-05-26T10:13:21.427Z,6.03
2023-05-26T10:15:49.362Z,5.80
2023-05-26T10:18:16.540Z,6.17
2023-05-26T10:20:53.659Z,5.10
2023-05-26T10:23:49.942Z,6.00
2023-05-26T10:26:46.176Z,4.97
2023-05-26T10:29:18.501Z,7.97
2023-05-26T10:31:45.594Z,6.23
2023-05-26T10:34:14.069Z,6.23
2023-05-26T10:36:41.019Z,5.50
2023-05-26T10:39:12.200Z,5.13
2023-05-26T10:41:49.657Z,6.77
2023-05-26T10:44:42.615Z,5.90
2023-05-26T10:47:17.998Z,5.20
2023-05-26T10:50:11.425Z,5.30
2023-05-26T10:52:49.551Z,6.10
2023-05-26T10:55:46.186Z,6.17
2023-05-26T10:58:49.659Z,5.40
2023-05-26T11:01:31.044Z,5.03
2023-05-26T11:04:09.648Z,6.10
2023-05-26T11:06:52.043Z,5.40
2023-05-26T11:09:23.416Z,5.13
2023-05-26T11:12:02.062Z,5.73
2023-05-26T11:14:35.916Z,5.47
2023-05-26T11:17:05.517Z,5.20
2023-05-26T11:19:38.248Z,5.53
2023-05-26T11:22:08.154Z,5.70
2023-05-26T11:24:35.431Z,5.40
2023-05-26T11:27:09.185Z,5.87
2023-05-26T11:29:36.086Z,5.70
2023-05-26T11:32:04.282Z,5.80
2023-05-26T11:34:31.309Z,6.20
2023-05-26T11:36:59.683Z,5.30
2023-05-26T11:39:33.169Z,5.43
2023-05-26T11:42:11.689Z,4.90
2023-05-26T11:44:39.549Z,5.60
2023-05-26T11:47:07.313Z,4.17
2023-05-26T11:49:34.308Z,4.80
2023-05-26T11:52:01.273Z,5.30
2023-05-26T11:54:28.162Z,3.70
2023-05-26T11:56:55.066Z,4.87
2023-05-26T11:59:22.394Z,4.00
2023-05-26T12:01:49.548Z,5.03
2023-05-26T12:04:28.280Z,4.47
2023-05-26T12:06:55.776Z,4.63
2023-05-26T12:09:23.987Z,3.90
2023-05-26T12:11:54.729Z,4.33
2023-05-26T12:14:24.889Z,4.30
2023-05-26T12:16:54.187Z,4.97
2023-05-26T12:19:25.162Z,4.17
2023-05-26T12:21:57.189Z,4.37
2023-05-26T12:24:37.638Z,3.93
2023-05-26T12:27:13.559Z,3.23
2023-05-26T12:29:45.343Z,4.13
2023-05-26T12:32:13.263Z,4.17
2023-05-26T12:34:42.049Z,3.17
2023-05-26T12:37:09.196Z,4.20
2023-05-26T12:39:36.946Z,4.10
2023-05-26T12:42:04.113Z,4.03
2023-05-26T12:44:31.077Z,3.87
2023-05-26T12:46:58.038Z,4.13
2023-05-26T12:49:24.921Z,3.53
2023-05-26T12:51:51.810Z,3.50
2023-05-26T12:54:18.810Z,3.43
2023-05-26T12:56:45.722Z,3.60
2023-05-26T12:59:19.153Z,4.53
2023-05-26T13:01:47.314Z,3.90
2023-05-26T13:04:14.598Z,3.90
2023-05-26T13:06:41.682Z,4.00
2023-05-26T13:09:11.383Z,3.93
2023-05-26T13:11:38.420Z,4.30
2023-05-26T13:14:05.446Z,3.07
2023-05-26T13:16:32.496Z,2.73
2023-05-26T13:18:59.613Z,3.27
2023-05-26T13:21:26.569Z,4.33
2023-05-26T13:23:53.479Z,3.87
2023-05-26T13:26:20.571Z,3.60
2023-05-26T13:28:48.431Z,3.27
2023-05-26T13:31:15.477Z,3.50
2023-05-26T13:33:42.699Z,3.47
2023-05-26T13:36:10.306Z,4.10
2023-05-26T13:38:37.768Z,3.30
2023-05-26T13:41:04.995Z,4.00
2023-05-26T13:43:32.031Z,3.73
2023-05-26T13:45:58.924Z,3.30
2023-05-26T13:48:26.830Z,4.07
2023-05-26T13:50:54.011Z,3.93
2023-05-26T13:53:23.724Z,4.10
2023-05-26T13:55:51.219Z,4.80
2023-05-26T13:58:18.223Z,6.20
2023-05-26T14:00:45.378Z,4.13
2023-05-26T14:03:12.727Z,4.10
2023-05-26T14:05:39.689Z,5.13
2023-05-26T14:08:07.796Z,5.00
2023-05-26T14:10:35.175Z,5.10
2023-05-26T14:13:02.690Z,4.73
2023-05-26T14:15:32.863Z,5.50
2023-05-26T14:22:00.168Z,5.70
2023-05-26T14:23:16.823Z,5.43
2023-05-26T14:25:43.925Z,4.70
2023-05-26T14:28:10.948Z,4.30
2023-05-26T14:30:37.824Z,4.23
2023-05-26T14:33:06.559Z,3.87
2023-05-26T14:35:33.496Z,3.97
2023-05-26T14:38:00.536Z,4.30
2023-05-26T14:40:30.714Z,5.00
2023-05-26T14:42:57.957Z,4.77
2023-05-26T14:45:24.932Z,4.50
2023-05-26T14:47:51.841Z,5.00
2023-05-26T14:50:20.876Z,5.17
2023-05-26T14:52:49.407Z,4.73
2023-05-26T14:55:17.913Z,5.50
2023-05-26T14:57:44.773Z,4.20
2023-05-26T15:00:12.885Z,4.43
2023-05-26T15:02:40.253Z,5.10
2023-05-26T15:05:09.141Z,5.83
2023-05-26T15:07:36.459Z,4.40
2023-05-26T15:10:04.449Z,8.50
2023-05-26T15:12:31.838Z,6.20
2023-05-26T15:14:58.740Z,5.37
2023-05-26T15:17:26.208Z,5.60
2023-05-26T15:19:53.278Z,4.93
2023-05-26T15:22:20.263Z,5.17
2023-05-26T15:24:47.440Z,4.97
2023-05-26T15:27:16.146Z,5.10
2023-05-26T15:29:44.534Z,5.33
2023-05-26T15:32:11.535Z,4.60
2023-05-26T15:34:39.755Z,4.37
2023-05-26T15:37:06.991Z,3.90
2023-05-26T15:39:34.181Z,5.20
2023-05-26T15:42:01.851Z,4.40
2023-05-26T15:44:29.112Z,5.13
2023-05-26T15:46:56.074Z,4.90
2023-05-26T15:49:25.690Z,4.00
2023-05-26T15:51:52.594Z,4.20
2023-05-26T15:54:19.698Z,4.07
2023-05-26T15:56:47.057Z,3.47
2023-05-26T15:59:14.240Z,4.30
2023-05-26T16:01:41.150Z,3.30
2023-05-26T16:04:08.417Z,4.23
2023-05-26T16:06:36.123Z,4.57
2023-05-26T16:09:03.070Z,4.20
2023-05-26T16:11:30.094Z,4.00
2023-05-26T16:13:57.023Z,3.70
2023-05-26T16:16:23.929Z,3.30
2023-05-26T16:18:52.855Z,3.30
2023-05-26T16:21:20.123Z,3.70
2023-05-26T16:23:47.114Z,3.50
2023-05-26T16:26:14.024Z,3.67
2023-05-26T16:28:40.883Z,3.60
2023-05-26T16:31:07.838Z,3.80
2023-05-26T16:33:34.738Z,4.17
2023-05-26T16:36:01.571Z,4.00
2023-05-26T16:38:31.064Z,3.20
2023-05-26T16:41:00.858Z,4.00
2023-05-26T16:45:57.877Z,4.13
2023-05-26T16:48:25.110Z,3.47
2023-05-26T16:50:53.231Z,4.13
2023-05-26T16:53:20.385Z,5.20
2023-05-26T16:55:47.256Z,8.30
2023-05-26T16:58:14.247Z,4.93
2023-05-26T17:00:41.354Z,3.97
2023-05-26T17:03:08.494Z,4.30
2023-05-26T17:05:35.653Z,4.00
2023-05-26T17:08:02.553Z,3.47
2023-05-26T17:10:29.554Z,3.97
2023-05-26T17:12:57.749Z,4.63
2023-05-26T17:15:24.753Z,3.60
2023-05-26T17:17:51.963Z,3.73
2023-05-26T17:20:19.331Z,4.00
2023-05-26T17:22:46.305Z,3.67
2023-05-26T17:25:14.250Z,4.70
2023-05-26T17:27:41.450Z,4.27
2023-05-26T17:30:09.713Z,3.40
2023-05-26T17:32:36.709Z,5.07
2023-05-26T17:35:04.296Z,3.73
2023-05-26T17:37:31.779Z,4.60
2023-05-26T17:39:58.841Z,3.50
2023-05-26T17:42:26.158Z,3.80
2023-05-26T17:44:53.163Z,4.00
2023-05-26T17:47:20.204Z,6.67
2023-05-26T17:49:47.231Z,4.50
2023-05-26T17:52:14.088Z,3.67
2023-05-26T17:54:41.009Z,6.10
2023-05-26T17:57:07.910Z,4.80
2023-05-26T17:59:35.221Z,4.80
2023-05-26T18:02:02.171Z,6.37
2023-05-26T18:04:29.260Z,5.10
2023-05-26T18:06:56.300Z,3.40
2023-05-26T18:09:23.340Z,4.50
2023-05-26T18:11:50.653Z,4.33
2023-05-26T18:14:18.584Z,3.63
2023-05-26T18:16:45.558Z,3.80
2023-05-26T18:19:12.575Z,3.23
2023-05-26T18:21:39.883Z,3.40
2023-05-26T18:24:07.222Z,3.20
2023-05-26T18:26:34.290Z,4.20
2023-05-26T18:29:02.000Z,3.73
2023-05-26T18:31:30.053Z,3.80
2023-05-26T18:33:58.971Z,3.90
2023-05-26T18:36:27.376Z,3.67
2023-05-26T18:38:54.317Z,3.90
2023-05-26T18:41:23.324Z,4.47
2023-05-26T18:43:50.478Z,3.60
2023-05-26T18:46:17.367Z,4.40
2023-05-26T18:48:44.315Z,4.17
2023-05-26T18:51:11.190Z,4.20
2023-05-26T18:53:38.985Z,4.17
2023-05-26T18:56:09.764Z,3.67
2023-05-26T18:58:36.778Z,4.70
2023-05-26T19:01:04.482Z,3.80
2023-05-26T19:03:31.662Z,4.67
2023-05-26T19:05:58.557Z,2.90
2023-05-26T19:08:26.315Z,4.20
2023-05-26T19:10:53.200Z,4.27
2023-05-26T19:13:20.256Z,4.67
2023-05-26T19:15:47.161Z,5.17
2023-05-26T19:18:14.118Z,3.37
2023-05-26T19:20:41.066Z,3.80
2023-05-26T19:23:08.017Z,3.97
2023-05-26T19:25:34.915Z,4.10
2023-05-26T19:28:01.776Z,4.93
2023-05-26T19:30:28.652Z,4.43
2023-05-26T19:32:55.606Z,5.03
2023-05-26T19:35:23.385Z,4.37
2023-05-26T19:37:50.628Z,5.20
2023-05-26T19:40:17.658Z,4.00
2023-05-26T19:42:44.561Z,4.23
2023-05-26T19:45:12.651Z,6.00
2023-05-26T19:47:39.586Z,4.67
2023-05-26T19:50:07.266Z,4.57
2023-05-26T19:52:34.252Z,5.67
2023-05-26T19:55:01.142Z,5.60
2023-05-26T19:57:31.521Z,5.50
2023-05-26T19:59:58.606Z,5.00
2023-05-26T20:02:26.203Z,6.07
2023-05-26T20:04:53.375Z,5.20
2023-05-26T20:07:21.367Z,5.90
2023-05-26T20:09:49.069Z,5.60
2023-05-26T20:12:16.034Z,5.87
2023-05-26T20:14:42.940Z,5.13
2023-05-26T20:17:09.804Z,5.13
2023-05-26T20:19:47.301Z,4.40
2023-05-26T20:22:22.868Z,6.53
2023-05-26T20:24:50.072Z,6.20
2023-05-26T20:27:17.097Z,5.40
2023-05-26T20:29:43.928Z,5.37
2023-05-26T20:32:10.805Z,5.57
2023-05-26T20:34:37.757Z,5.83
2023-05-26T20:37:05.054Z,5.13
2023-05-26T20:39:31.961Z,5.07
2023-05-26T20:41:58.908Z,5.20
2023-05-26T20:44:25.816Z,5.37
2023-05-26T20:46:52.710Z,6.03
2023-05-26T20:49:19.776Z,6.10
2023-05-26T20:51:46.820Z,5.53
2023-05-26T20:54:13.956Z,6.40
2023-05-26T20:56:40.902Z,5.73
2023-05-26T20:59:07.797Z,5.70
2023-05-26T21:01:34.731Z,6.20
2023-05-26T21:04:01.734Z,6.23
2023-05-26T21:06:28.665Z,6.50
2023-05-26T21:08:55.550Z,5.20
2023-05-26T21:11:22.448Z,5.47
2023-05-26T21:13:49.410Z,5.70
2023-05-26T21:16:16.478Z,5.83
2023-05-26T21:18:43.414Z,6.43
2023-05-26T21:21:10.510Z,6.90
2023-05-26T21:23:37.423Z,5.87
2023-05-26T21:26:04.635Z,6.20
2023-05-26T21:28:31.842Z,5.20
2023-05-26T21:30:58.704Z,6.17
2023-05-26T21:33:25.616Z,6.30
2023-05-26T21:35:52.619Z,4.93
2023-05-26T21:38:19.598Z,4.70
2023-05-26T21:40:46.457Z,5.10
2023-05-26T21:43:13.399Z,5.30
2023-05-26T21:45:40.515Z,5.67
2023-05-26T21:48:07.502Z,5.30
2023-05-26T21:50:34.607Z,5.67
2023-05-26T21:53:01.552Z,5.10
2023-05-26T21:55:28.464Z,5.57
2023-05-26T21:57:55.448Z,5.90
2023-05-26T22:00:23.341Z,6.93
2023-05-26T22:02:51.463Z,6.77
2023-05-26T22:05:18.580Z,5.33
2023-05-26T22:07:45.649Z,5.77
2023-05-26T22:10:14.318Z,5.63
2023-05-26T22:12:41.959Z,6.17
2023-05-26T22:15:09.764Z,6.20
2023-05-26T22:17:37.172Z,6.03
2023-05-26T22:20:05.848Z,5.33
2023-05-26T22:22:33.621Z,5.50
2023-05-26T22:25:01.463Z,5.90
2023-05-26T22:27:28.561Z,6.10
2023-05-26T22:29:55.754Z,5.30
2023-05-26T22:32:23.311Z,5.70
2023-05-26T22:34:50.268Z,4.97
2023-05-26T22:37:17.142Z,5.93
2023-05-26T22:39:44.020Z,6.33
2023-05-26T22:42:10.916Z,6.13
2023-05-26T22:44:38.166Z,5.57
2023-05-26T22:47:05.386Z,6.60
2023-05-26T22:49:32.376Z,6.20
2023-05-26T22:51:59.357Z,6.33
2023-05-26T22:54:26.330Z,5.27
2023-05-26T22:56:53.270Z,4.30
2023-05-26T22:59:20.133Z,5.50
2023-05-26T23:01:48.077Z,7.13
2023-05-26T23:04:15.149Z,6.83
2023-05-26T23:06:42.096Z,5.83
2023-05-26T23:09:09.115Z,6.37
2023-05-26T23:11:36.025Z,6.17
2023-05-26T23:14:02.993Z,6.37
2023-05-26T23:16:29.886Z,6.00
2023-05-26T23:18:56.762Z,5.90
2023-05-26T23:21:23.800Z,6.47
2023-05-26T23:23:50.658Z,6.90
2023-05-26T23:26:17.603Z,6.77
2023-05-26T23:28:44.521Z,7.30
2023-05-26T23:31:11.394Z,6.53
2023-05-26T23:33:38.267Z,7.00
2023-05-26T23:36:05.453Z,5.90
2023-05-26T23:38:32.341Z,6.30
2023-05-26T23:40:59.324Z,6.77
2023-05-26T23:43:26.208Z,6.53
2023-05-26T23:45:53.223Z,7.70
2023-05-26T23:48:20.309Z,7.77
2023-05-26T23:50:47.474Z,6.27
2023-05-26T23:53:14.533Z,5.87
2023-05-26T23:55:41.543Z,6.80
2023-05-26T23:58:08.425Z,6.37
